sensor_id;sensor_type;location;lat;lon;timestamp;pressure;altitude;pressure_sealevel;temperature;humidity
75157;BME280;63736;50.076;8.198;2023-03-31T00:01:24;98790.47;;;10.74;100.00
75157;BME280;63736;50.076;8.198;2023-03-31T00:03:50;98798.94;;;10.70;100.00
75157;BME280;63736;50.076;8.198;2023-03-31T00:06:15;98781.69;;;10.64;100.00
75157;BME280;63736;50.076;8.198;2023-03-31T00:08:43;98777.47;;;10.62;100.00
75157;BME280;63736;50.076;8.198;2023-03-31T00:11:09;98769.06;;;10.56;100.00
75157;BME280;63736;50.076;8.198;2023-03-31T00:13:35;98759.34;;;10.55;100.00
75157;BME280;63736;50.076;8.198;2023-03-31T00:16:04;98764.84;;;10.54;100.00
75157;BME280;63736;50.076;8.198;2023-03-31T00:18:30;98760.81;;;10.50;100.00
75157;BME280;63736;50.076;8.198;2023-03-31T00:21:08;98744.22;;;10.46;100.00
75157;BME280;63736;50.076;8.198;2023-03-31T00:23:33;98741.88;;;10.43;100.00
75157;BME280;63736;50.076;8.198;2023-03-31T00:25:59;98736.66;;;10.41;100.00
75157;BME280;63736;50.076;8.198;2023-03-31T00:28:25;98724.59;;;10.37;100.00
75157;BME280;63736;50.076;8.198;2023-03-31T00:30:50;98709.56;;;10.36;100.00
75157;BME280;63736;50.076;8.198;2023-03-31T00:33:16;98720.34;;;10.35;100.00
75157;BME280;63736;50.076;8.198;2023-03-31T00:35:42;98725.69;;;10.35;100.00
75157;BME280;63736;50.076;8.198;2023-03-31T00:38:08;98728.50;;;10.33;100.00
75157;BME280;63736;50.076;8.198;2023-03-31T00:40:34;98728.50;;;10.33;100.00
75157;BME280;63736;50.076;8.198;2023-03-31T00:42:59;98709.13;;;10.31;100.00
75157;BME280;63736;50.076;8.198;2023-03-31T00:45:28;98701.25;;;10.30;100.00
75157;BME280;63736;50.076;8.198;2023-03-31T00:48:00;98710.41;;;10.27;100.00
75157;BME280;63736;50.076;8.198;2023-03-31T00:50:34;98700.03;;;10.24;100.00
75157;BME280;63736;50.076;8.198;2023-03-31T00:53:06;98704.81;;;10.20;100.00
75157;BME280;63736;50.076;8.198;2023-03-31T00:55:37;98677.47;;;10.18;100.00
75157;BME280;63736;50.076;8.198;2023-03-31T00:58:05;98685.59;;;10.17;100.00
75157;BME280;63736;50.076;8.198;2023-03-31T01:00:32;98675.22;;;10.14;100.00
75157;BME280;63736;50.076;8.198;2023-03-31T01:03:01;98678.19;;;10.11;100.00
75157;BME280;63736;50.076;8.198;2023-03-31T01:05:32;98672.00;;;10.10;100.00
75157;BME280;63736;50.076;8.198;2023-03-31T01:07:59;98664.16;;;10.08;100.00
75157;BME280;63736;50.076;8.198;2023-03-31T01:10:26;98662.47;;;10.07;100.00
75157;BME280;63736;50.076;8.198;2023-03-31T01:12:53;98658.97;;;10.07;100.00
75157;BME280;63736;50.076;8.198;2023-03-31T01:15:20;98654.59;;;10.06;100.00
75157;BME280;63736;50.076;8.198;2023-03-31T01:17:46;98644.91;;;10.05;100.00
75157;BME280;63736;50.076;8.198;2023-03-31T01:37:34;98602.16;;;9.87;100.00
75157;BME280;63736;50.076;8.198;2023-03-31T01:40:38;98594.78;;;9.81;100.00
75157;BME280;63736;50.076;8.198;2023-03-31T01:43:43;98592.69;;;9.74;100.00
75157;BME280;63736;50.076;8.198;2023-03-31T01:49:06;98568.31;;;9.59;100.00
75157;BME280;63736;50.076;8.198;2023-03-31T01:51:45;98568.06;;;9.53;100.00
75157;BME280;63736;50.076;8.198;2023-03-31T01:54:38;98564.16;;;9.47;100.00
75157;BME280;63736;50.076;8.198;2023-03-31T01:57:19;98553.94;;;9.42;100.00
75157;BME280;63736;50.076;8.198;2023-03-31T02:00:02;98550.59;;;9.40;100.00
75157;BME280;63736;50.076;8.198;2023-03-31T02:02:39;98553.53;;;9.37;100.00
75157;BME280;63736;50.076;8.198;2023-03-31T02:05:09;98551.00;;;9.36;100.00
75157;BME280;63736;50.076;8.198;2023-03-31T02:07:41;98535.16;;;9.34;100.00
75157;BME280;63736;50.076;8.198;2023-03-31T02:10:09;98523.69;;;9.34;100.00
75157;BME280;63736;50.076;8.198;2023-03-31T02:12:38;98520.16;;;9.33;100.00
75157;BME280;63736;50.076;8.198;2023-03-31T02:15:09;98517.34;;;9.35;100.00
75157;BME280;63736;50.076;8.198;2023-03-31T02:17:37;98519.03;;;9.36;100.00
75157;BME280;63736;50.076;8.198;2023-03-31T02:20:09;98512.00;;;9.35;100.00
75157;BME280;63736;50.076;8.198;2023-03-31T02:22:42;98507.53;;;9.35;100.00
75157;BME280;63736;50.076;8.198;2023-03-31T02:25:12;98514.69;;;9.35;100.00
75157;BME280;63736;50.076;8.198;2023-03-31T02:27:40;98513.53;;;9.37;100.00
75157;BME280;63736;50.076;8.198;2023-03-31T02:30:07;98502.72;;;9.39;100.00
75157;BME280;63736;50.076;8.198;2023-03-31T02:32:41;98510.44;;;9.42;100.00
75157;BME280;63736;50.076;8.198;2023-03-31T02:35:18;98497.13;;;9.42;100.00
75157;BME280;63736;50.076;8.198;2023-03-31T02:37:45;98497.94;;;9.42;100.00
75157;BME280;63736;50.076;8.198;2023-03-31T02:40:17;98494.16;;;9.45;100.00
75157;BME280;63736;50.076;8.198;2023-03-31T02:42:43;98494.00;;;9.47;100.00
75157;BME280;63736;50.076;8.198;2023-03-31T02:48:06;98479.53;;;9.49;100.00
75157;BME280;63736;50.076;8.198;2023-03-31T02:50:42;98471.41;;;9.51;100.00
75157;BME280;63736;50.076;8.198;2023-03-31T02:53:35;98460.88;;;9.49;100.00
75157;BME280;63736;50.076;8.198;2023-03-31T02:59:10;98442.09;;;9.51;100.00
75157;BME280;63736;50.076;8.198;2023-03-31T03:01:58;98419.91;;;9.50;100.00
75157;BME280;63736;50.076;8.198;2023-03-31T03:04:46;98394.94;;;9.51;100.00
75157;BME280;63736;50.076;8.198;2023-03-31T03:07:30;98378.94;;;9.51;100.00
75157;BME280;63736;50.076;8.198;2023-03-31T03:10:05;98377.97;;;9.52;100.00
75157;BME280;63736;50.076;8.198;2023-03-31T03:12:42;98365.63;;;9.51;100.00
75157;BME280;63736;50.076;8.198;2023-03-31T03:17:46;98384.88;;;9.45;100.00
75157;BME280;63736;50.076;8.198;2023-03-31T03:20:13;98390.66;;;9.40;100.00
75157;BME280;63736;50.076;8.198;2023-03-31T03:22:40;98394.63;;;9.36;100.00
75157;BME280;63736;50.076;8.198;2023-03-31T03:25:08;98396.44;;;9.36;100.00
75157;BME280;63736;50.076;8.198;2023-03-31T03:27:34;98381.28;;;9.36;100.00
75157;BME280;63736;50.076;8.198;2023-03-31T03:30:00;98349.31;;;9.36;100.00
75157;BME280;63736;50.076;8.198;2023-03-31T03:32:29;98350.28;;;9.35;100.00
75157;BME280;63736;50.076;8.198;2023-03-31T03:34:54;98344.59;;;9.30;100.00
75157;BME280;63736;50.076;8.198;2023-03-31T03:37:20;98357.91;;;9.30;100.00
75157;BME280;63736;50.076;8.198;2023-03-31T03:39:45;98344.59;;;9.30;100.00
75157;BME280;63736;50.076;8.198;2023-03-31T03:42:10;98334.91;;;9.29;100.00
75157;BME280;63736;50.076;8.198;2023-03-31T03:44:35;98341.22;;;9.28;100.00
75157;BME280;63736;50.076;8.198;2023-03-31T03:47:01;98340.53;;;9.26;100.00
75157;BME280;63736;50.076;8.198;2023-03-31T03:49:26;98321.88;;;9.26;100.00
75157;BME280;63736;50.076;8.198;2023-03-31T03:51:51;98290.75;;;9.26;100.00
75157;BME280;63736;50.076;8.198;2023-03-31T03:54:17;98276.72;;;9.24;100.00
75157;BME280;63736;50.076;8.198;2023-03-31T03:56:42;98299.88;;;9.24;100.00
75157;BME280;63736;50.076;8.198;2023-03-31T03:59:07;98293.84;;;9.22;100.00
75157;BME280;63736;50.076;8.198;2023-03-31T04:01:33;98307.47;;;9.19;100.00
75157;BME280;63736;50.076;8.198;2023-03-31T04:03:58;98295.13;;;9.18;100.00
75157;BME280;63736;50.076;8.198;2023-03-31T04:06:23;98285.47;;;9.17;100.00
75157;BME280;63736;50.076;8.198;2023-03-31T04:08:49;98283.81;;;9.16;100.00
75157;BME280;63736;50.076;8.198;2023-03-31T04:11:16;98300.06;;;9.13;100.00
75157;BME280;63736;50.076;8.198;2023-03-31T04:13:43;98283.28;;;9.12;100.00
75157;BME280;63736;50.076;8.198;2023-03-31T04:16:08;98284.09;;;9.13;100.00
75157;BME280;63736;50.076;8.198;2023-03-31T04:18:34;98291.94;;;9.14;100.00
75157;BME280;63736;50.076;8.198;2023-03-31T04:21:02;98281.16;;;9.16;100.00
75157;BME280;63736;50.076;8.198;2023-03-31T04:23:29;98281.00;;;9.17;100.00
75157;BME280;63736;50.076;8.198;2023-03-31T04:25:55;98275.50;;;9.19;100.00
75157;BME280;63736;50.076;8.198;2023-03-31T04:28:20;98261.22;;;9.20;100.00
75157;BME280;63736;50.076;8.198;2023-03-31T04:30:45;98250.38;;;9.21;100.00
75157;BME280;63736;50.076;8.198;2023-03-31T04:33:10;98254.56;;;9.24;100.00
75157;BME280;63736;50.076;8.198;2023-03-31T04:35:40;98245.59;;;9.25;100.00
75157;BME280;63736;50.076;8.198;2023-03-31T04:38:15;98236.63;;;9.26;100.00
75157;BME280;63736;50.076;8.198;2023-03-31T04:40:46;98215.16;;;9.28;100.00
75157;BME280;63736;50.076;8.198;2023-03-31T04:43:12;98200.00;;;9.28;100.00
75157;BME280;63736;50.076;8.198;2023-03-31T04:45:37;98209.66;;;9.29;100.00
75157;BME280;63736;50.076;8.198;2023-03-31T04:48:02;98217.50;;;9.31;100.00
75157;BME280;63736;50.076;8.198;2023-03-31T04:50:28;98232.50;;;9.32;100.00
75157;BME280;63736;50.076;8.198;2023-03-31T04:52:53;98230.66;;;9.32;100.00
75157;BME280;63736;50.076;8.198;2023-03-31T04:55:18;98232.34;;;9.33;100.00
75157;BME280;63736;50.076;8.198;2023-03-31T04:57:43;98236.69;;;9.34;100.00
75157;BME280;63736;50.076;8.198;2023-03-31T05:00:09;98243.53;;;9.37;100.00
75157;BME280;63736;50.076;8.198;2023-03-31T05:02:36;98244.22;;;9.39;100.00
75157;BME280;63736;50.076;8.198;2023-03-31T05:05:01;98244.91;;;9.41;100.00
75157;BME280;63736;50.076;8.198;2023-03-31T05:07:26;98226.09;;;9.42;100.00
75157;BME280;63736;50.076;8.198;2023-03-31T05:09:52;98228.47;;;9.46;100.00
75157;BME280;63736;50.076;8.198;2023-03-31T05:12:17;98220.31;;;9.47;100.00
75157;BME280;63736;50.076;8.198;2023-03-31T05:14:42;98216.50;;;9.50;100.00
75157;BME280;63736;50.076;8.198;2023-03-31T05:17:07;98209.16;;;9.52;100.00
75157;BME280;63736;50.076;8.198;2023-03-31T05:19:33;98211.53;;;9.55;100.00
75157;BME280;63736;50.076;8.198;2023-03-31T05:21:58;98207.03;;;9.55;100.00
75157;BME280;63736;50.076;8.198;2023-03-31T05:24:23;98206.75;;;9.58;100.00
75157;BME280;63736;50.076;8.198;2023-03-31T05:26:49;98205.72;;;9.59;100.00
75157;BME280;63736;50.076;8.198;2023-03-31T05:29:17;98200.41;;;9.59;100.00
75157;BME280;63736;50.076;8.198;2023-03-31T05:31:43;98205.59;;;9.61;100.00
75157;BME280;63736;50.076;8.198;2023-03-31T05:34:08;98181.59;;;9.61;100.00
75157;BME280;63736;50.076;8.198;2023-03-31T05:36:33;98169.25;;;9.60;100.00
75157;BME280;63736;50.076;8.198;2023-03-31T05:38:59;98163.94;;;9.60;100.00
75157;BME280;63736;50.076;8.198;2023-03-31T05:41:24;98154.25;;;9.59;100.00
75157;BME280;63736;50.076;8.198;2023-03-31T05:43:50;98140.94;;;9.59;100.00
75157;BME280;63736;50.076;8.198;2023-03-31T05:46:15;98136.41;;;9.59;100.00
75157;BME280;63736;50.076;8.198;2023-03-31T05:48:42;98136.56;;;9.58;100.00
75157;BME280;63736;50.076;8.198;2023-03-31T05:51:09;98123.09;;;9.59;100.00
75157;BME280;63736;50.076;8.198;2023-03-31T05:53:34;98114.25;;;9.59;100.00
75157;BME280;63736;50.076;8.198;2023-03-31T05:56:01;98100.13;;;9.58;100.00
75157;BME280;63736;50.076;8.198;2023-03-31T05:58:27;98094.78;;;9.58;100.00
75157;BME280;63736;50.076;8.198;2023-03-31T06:01:07;98079.59;;;9.59;100.00
75157;BME280;63736;50.076;8.198;2023-03-31T06:03:34;98079.59;;;9.59;100.00
75157;BME280;63736;50.076;8.198;2023-03-31T06:06:00;98072.44;;;9.59;100.00
75157;BME280;63736;50.076;8.198;2023-03-31T06:08:27;98067.97;;;9.60;100.00
75157;BME280;63736;50.076;8.198;2023-03-31T06:10:52;98066.28;;;9.59;100.00
75157;BME280;63736;50.076;8.198;2023-03-31T06:13:18;98052.13;;;9.58;100.00
75157;BME280;63736;50.076;8.198;2023-03-31T06:15:55;98049.59;;;9.57;100.00
75157;BME280;63736;50.076;8.198;2023-03-31T06:18:21;98034.75;;;9.54;100.00
75157;BME280;63736;50.076;8.198;2023-03-31T06:20:46;98034.09;;;9.52;100.00
75157;BME280;63736;50.076;8.198;2023-03-31T06:23:11;98031.44;;;9.52;100.00
75157;BME280;63736;50.076;8.198;2023-03-31T06:25:37;98030.56;;;9.52;100.00
75157;BME280;63736;50.076;8.198;2023-03-31T06:28:02;98024.41;;;9.51;100.00
75157;BME280;63736;50.076;8.198;2023-03-31T06:30:28;98018.28;;;9.51;100.00
75157;BME280;63736;50.076;8.198;2023-03-31T06:32:53;98011.91;;;9.52;100.00
75157;BME280;63736;50.076;8.198;2023-03-31T06:35:19;98000.59;;;9.50;100.00
75157;BME280;63736;50.076;8.198;2023-03-31T06:37:44;97997.78;;;9.51;100.00
75157;BME280;63736;50.076;8.198;2023-03-31T06:40:10;97991.44;;;9.52;100.00
75157;BME280;63736;50.076;8.198;2023-03-31T06:42:35;97987.94;;;9.52;100.00
75157;BME280;63736;50.076;8.198;2023-03-31T06:45:00;97987.94;;;9.52;100.00
75157;BME280;63736;50.076;8.198;2023-03-31T06:47:25;97984.44;;;9.51;100.00
75157;BME280;63736;50.076;8.198;2023-03-31T06:49:51;97989.94;;;9.50;100.00
75157;BME280;63736;50.076;8.198;2023-03-31T06:52:16;97992.59;;;9.50;100.00
75157;BME280;63736;50.076;8.198;2023-03-31T06:54:41;97992.78;;;9.48;100.00
75157;BME280;63736;50.076;8.198;2023-03-31T06:57:06;97995.56;;;9.47;100.00
75157;BME280;63736;50.076;8.198;2023-03-31T06:59:32;97999.09;;;9.47;100.00
75157;BME280;63736;50.076;8.198;2023-03-31T07:01:57;98007.38;;;9.44;100.00
75157;BME280;63736;50.076;8.198;2023-03-31T07:04:22;98056.22;;;9.45;100.00
75157;BME280;63736;50.076;8.198;2023-03-31T07:06:48;98046.69;;;9.42;100.00
75157;BME280;63736;50.076;8.198;2023-03-31T07:09:13;98030.72;;;9.42;100.00
75157;BME280;63736;50.076;8.198;2023-03-31T07:11:38;98012.59;;;9.46;100.00
75157;BME280;63736;50.076;8.198;2023-03-31T07:14:03;98000.25;;;9.45;100.00
75157;BME280;63736;50.076;8.198;2023-03-31T07:16:29;97995.72;;;9.45;100.00
75157;BME280;63736;50.076;8.198;2023-03-31T07:18:55;97982.56;;;9.43;100.00
75157;BME280;63736;50.076;8.198;2023-03-31T07:21:23;97980.06;;;9.42;100.00
75157;BME280;63736;50.076;8.198;2023-03-31T07:23:49;97968.44;;;9.43;100.00
75157;BME280;63736;50.076;8.198;2023-03-31T07:26:14;97967.28;;;9.46;100.00
75157;BME280;63736;50.076;8.198;2023-03-31T07:28:39;97960.28;;;9.53;100.00
75157;BME280;63736;50.076;8.198;2023-03-31T07:31:12;97975.66;;;9.67;100.00
75157;BME280;63736;50.076;8.198;2023-03-31T07:33:37;97980.72;;;9.79;100.00
75157;BME280;63736;50.076;8.198;2023-03-31T07:36:07;97970.91;;;9.87;100.00
75157;BME280;63736;50.076;8.198;2023-03-31T07:38:32;97964.75;;;9.95;100.00
75157;BME280;63736;50.076;8.198;2023-03-31T07:40:58;97948.94;;;10.10;100.00
75157;BME280;63736;50.076;8.198;2023-03-31T07:43:23;97936.97;;;10.47;100.00
75157;BME280;63736;50.076;8.198;2023-03-31T07:45:48;97930.91;;;10.95;100.00
75157;BME280;63736;50.076;8.198;2023-03-31T07:48:14;97928.16;;;11.19;100.00
75157;BME280;63736;50.076;8.198;2023-03-31T07:50:39;97946.66;;;11.29;100.00
75157;BME280;63736;50.076;8.198;2023-03-31T07:53:04;97950.31;;;11.36;100.00
75157;BME280;63736;50.076;8.198;2023-03-31T07:55:30;97963.97;;;11.50;100.00
75157;BME280;63736;50.076;8.198;2023-03-31T07:57:55;97957.19;;;12.71;100.00
75157;BME280;63736;50.076;8.198;2023-03-31T08:00:21;97956.44;;;15.89;100.00
75157;BME280;63736;50.076;8.198;2023-03-31T08:02:46;97953.63;;;17.38;100.00
75157;BME280;63736;50.076;8.198;2023-03-31T08:05:13;97957.22;;;16.85;100.00
75157;BME280;63736;50.076;8.198;2023-03-31T08:07:41;97963.88;;;17.03;100.00
75157;BME280;63736;50.076;8.198;2023-03-31T08:10:09;97968.78;;;18.43;100.00
75157;BME280;63736;50.076;8.198;2023-03-31T08:12:35;97962.00;;;18.91;100.00
75157;BME280;63736;50.076;8.198;2023-03-31T08:15:00;97956.59;;;18.59;98.80
75157;BME280;63736;50.076;8.198;2023-03-31T08:17:25;97966.56;;;17.81;100.00
75157;BME280;63736;50.076;8.198;2023-03-31T08:19:51;97966.16;;;16.92;100.00
75157;BME280;63736;50.076;8.198;2023-03-31T08:22:16;97953.59;;;16.11;100.00
75157;BME280;63736;50.076;8.198;2023-03-31T08:24:41;97946.66;;;15.40;100.00
75157;BME280;63736;50.076;8.198;2023-03-31T08:27:07;97939.91;;;14.80;100.00
75157;BME280;63736;50.076;8.198;2023-03-31T08:29:32;97930.19;;;14.36;100.00
75157;BME280;63736;50.076;8.198;2023-03-31T08:31:57;97938.63;;;14.11;100.00
75157;BME280;63736;50.076;8.198;2023-03-31T08:34:23;97953.44;;;13.85;100.00
75157;BME280;63736;50.076;8.198;2023-03-31T08:36:48;97952.34;;;13.65;100.00
75157;BME280;63736;50.076;8.198;2023-03-31T08:39:13;97949.78;;;13.42;100.00
75157;BME280;63736;50.076;8.198;2023-03-31T08:42:01;97951.78;;;13.25;100.00
75157;BME280;63736;50.076;8.198;2023-03-31T08:44:33;97950.13;;;13.09;100.00
75157;BME280;63736;50.076;8.198;2023-03-31T08:47:02;97942.81;;;13.02;100.00
75157;BME280;63736;50.076;8.198;2023-03-31T08:49:38;97934.31;;;13.14;100.00
75157;BME280;63736;50.076;8.198;2023-03-31T08:52:09;97936.00;;;13.45;100.00
75157;BME280;63736;50.076;8.198;2023-03-31T08:54:39;97931.47;;;14.18;100.00
75157;BME280;63736;50.076;8.198;2023-03-31T08:57:13;97921.94;;;16.33;100.00
75157;BME280;63736;50.076;8.198;2023-03-31T08:59:39;97916.78;;;18.16;100.00
75157;BME280;63736;50.076;8.198;2023-03-31T09:07:38;97901.06;;;24.64;53.74
75157;BME280;63736;50.076;8.198;2023-03-31T09:12:51;97899.16;;;26.29;45.16
75157;BME280;63736;50.076;8.198;2023-03-31T09:18:30;97912.53;;;26.05;44.06
75157;BME280;63736;50.076;8.198;2023-03-31T09:21:13;97908.97;;;26.10;44.06
75157;BME280;63736;50.076;8.198;2023-03-31T09:23:48;97910.91;;;24.38;46.77
75157;BME280;63736;50.076;8.198;2023-03-31T09:26:31;97914.06;;;22.17;53.45
75157;BME280;63736;50.076;8.198;2023-03-31T09:29:00;97907.75;;;20.40;61.24
75157;BME280;63736;50.076;8.198;2023-03-31T09:31:28;97904.50;;;18.96;67.67
75157;BME280;63736;50.076;8.198;2023-03-31T09:33:58;97906.34;;;17.81;74.62
75157;BME280;63736;50.076;8.198;2023-03-31T09:36:25;97907.81;;;17.11;81.08
75157;BME280;63736;50.076;8.198;2023-03-31T09:38:51;97896.44;;;16.69;86.58
75157;BME280;63736;50.076;8.198;2023-03-31T09:41:17;97875.53;;;16.38;91.07
75157;BME280;63736;50.076;8.198;2023-03-31T09:43:43;97871.13;;;16.03;93.56
75157;BME280;63736;50.076;8.198;2023-03-31T09:46:16;97856.09;;;15.67;96.03
75157;BME280;63736;50.076;8.198;2023-03-31T09:48:49;97860.16;;;15.36;99.47
75157;BME280;63736;50.076;8.198;2023-03-31T09:51:21;97860.47;;;15.13;100.00
75157;BME280;63736;50.076;8.198;2023-03-31T09:53:52;97844.47;;;15.04;100.00
75157;BME280;63736;50.076;8.198;2023-03-31T09:56:48;97852.22;;;15.21;100.00
75157;BME280;63736;50.076;8.198;2023-03-31T09:59:33;97839.22;;;15.25;100.00
75157;BME280;63736;50.076;8.198;2023-03-31T10:02:02;97837.63;;;15.02;100.00
75157;BME280;63736;50.076;8.198;2023-03-31T10:04:31;97843.25;;;14.72;100.00
75157;BME280;63736;50.076;8.198;2023-03-31T10:07:00;97846.13;;;14.42;100.00
75157;BME280;63736;50.076;8.198;2023-03-31T10:09:28;97854.94;;;14.08;100.00
75157;BME280;63736;50.076;8.198;2023-03-31T10:12:06;97871.31;;;13.69;100.00
75157;BME280;63736;50.076;8.198;2023-03-31T10:14:39;97879.47;;;13.31;100.00
75157;BME280;63736;50.076;8.198;2023-03-31T10:17:05;97870.16;;;12.97;100.00
75157;BME280;63736;50.076;8.198;2023-03-31T10:19:33;97874.03;;;12.65;100.00
75157;BME280;63736;50.076;8.198;2023-03-31T10:22:11;97871.97;;;12.52;100.00
75157;BME280;63736;50.076;8.198;2023-03-31T10:24:44;97866.25;;;12.40;100.00
75157;BME280;63736;50.076;8.198;2023-03-31T10:27:29;97859.81;;;12.26;100.00
75157;BME280;63736;50.076;8.198;2023-03-31T10:29:57;97853.88;;;12.16;100.00
75157;BME280;63736;50.076;8.198;2023-03-31T10:34:53;97849.28;;;12.10;100.00
75157;BME280;63736;50.076;8.198;2023-03-31T10:37:22;97840.50;;;12.16;100.00
75157;BME280;63736;50.076;8.198;2023-03-31T10:39:59;97836.78;;;12.25;100.00
75157;BME280;63736;50.076;8.198;2023-03-31T10:42:26;97837.44;;;12.42;100.00
75157;BME280;63736;50.076;8.198;2023-03-31T10:47:40;97837.00;;;12.98;100.00
75157;BME280;63736;50.076;8.198;2023-03-31T10:50:13;97827.00;;;13.37;100.00
75157;BME280;63736;50.076;8.198;2023-03-31T10:52:46;97821.72;;;13.87;100.00
75157;BME280;63736;50.076;8.198;2023-03-31T10:55:16;97825.41;;;14.29;100.00
75157;BME280;63736;50.076;8.198;2023-03-31T10:57:53;97820.97;;;14.78;100.00
75157;BME280;63736;50.076;8.198;2023-03-31T11:03:16;97823.00;;;15.66;100.00
75157;BME280;63736;50.076;8.198;2023-03-31T11:06:26;97819.56;;;16.06;100.00
75157;BME280;63736;50.076;8.198;2023-03-31T11:14:31;97811.00;;;16.63;89.63
75157;BME280;63736;50.076;8.198;2023-03-31T11:22:23;97807.75;;;16.21;84.88
75157;BME280;63736;50.076;8.198;2023-03-31T11:27:59;97818.41;;;15.67;89.27
75157;BME280;63736;50.076;8.198;2023-03-31T11:35:41;97811.19;;;15.54;91.32
75157;BME280;63736;50.076;8.198;2023-03-31T11:41:35;97789.22;;;15.64;89.47
75157;BME280;63736;50.076;8.198;2023-03-31T11:44:04;97802.78;;;15.84;89.33
75157;BME280;63736;50.076;8.198;2023-03-31T11:46:40;97790.56;;;16.01;86.24
75157;BME280;63736;50.076;8.198;2023-03-31T11:49:15;97786.00;;;16.22;84.19
75157;BME280;63736;50.076;8.198;2023-03-31T11:51:47;97786.59;;;16.24;80.29
75157;BME280;63736;50.076;8.198;2023-03-31T11:54:35;97792.00;;;16.17;80.64
75157;BME280;63736;50.076;8.198;2023-03-31T11:57:08;97787.84;;;16.01;82.06
75157;BME280;63736;50.076;8.198;2023-03-31T11:59:38;97792.41;;;15.81;82.52
75157;BME280;63736;50.076;8.198;2023-03-31T12:02:20;97818.97;;;15.42;84.44
75157;BME280;63736;50.076;8.198;2023-03-31T12:04:51;97799.34;;;14.86;89.38
75157;BME280;63736;50.076;8.198;2023-03-31T12:07:30;97785.16;;;14.36;92.21
75157;BME280;63736;50.076;8.198;2023-03-31T12:10:12;97767.72;;;13.97;94.85
75157;BME280;63736;50.076;8.198;2023-03-31T12:12:48;97770.41;;;13.75;94.67
75157;BME280;63736;50.076;8.198;2023-03-31T12:15:21;97760.00;;;13.65;96.68
75157;BME280;63736;50.076;8.198;2023-03-31T12:17:53;97754.56;;;13.59;95.97
75157;BME280;63736;50.076;8.198;2023-03-31T12:20:30;97752.84;;;13.51;97.55
75157;BME280;63736;50.076;8.198;2023-03-31T12:22:59;97761.53;;;13.53;97.84
75157;BME280;63736;50.076;8.198;2023-03-31T12:25:37;97756.03;;;13.61;97.80
75157;BME280;63736;50.076;8.198;2023-03-31T12:28:03;97765.25;;;13.74;97.94
75157;BME280;63736;50.076;8.198;2023-03-31T12:30:37;97753.19;;;13.91;96.82
75157;BME280;63736;50.076;8.198;2023-03-31T12:33:13;97759.47;;;14.27;97.38
75157;BME280;63736;50.076;8.198;2023-03-31T12:41:31;97762.22;;;15.24;93.07
75157;BME280;63736;50.076;8.198;2023-03-31T12:44:38;97764.09;;;15.23;92.85
75157;BME280;63736;50.076;8.198;2023-03-31T12:47:12;97757.25;;;15.14;96.21
75157;BME280;63736;50.076;8.198;2023-03-31T12:50:08;97764.66;;;15.05;96.95
75157;BME280;63736;50.076;8.198;2023-03-31T12:53:14;97765.88;;;14.96;97.19
75157;BME280;63736;50.076;8.198;2023-03-31T12:55:45;97752.00;;;14.92;98.78
75157;BME280;63736;50.076;8.198;2023-03-31T13:05:58;97739.94;;;15.57;97.39
75157;BME280;63736;50.076;8.198;2023-03-31T13:08:55;97738.34;;;15.89;96.08
75157;BME280;63736;50.076;8.198;2023-03-31T13:11:36;97721.56;;;16.00;91.88
75157;BME280;63736;50.076;8.198;2023-03-31T13:14:20;97726.53;;;15.97;91.47
75157;BME280;63736;50.076;8.198;2023-03-31T13:16:46;97722.41;;;16.01;90.21
75157;BME280;63736;50.076;8.198;2023-03-31T13:19:31;97715.16;;;16.01;87.34
75157;BME280;63736;50.076;8.198;2023-03-31T13:21:58;97700.03;;;15.94;85.66
75157;BME280;63736;50.076;8.198;2023-03-31T13:24:26;97700.41;;;15.70;78.69
75157;BME280;63736;50.076;8.198;2023-03-31T13:26:53;97699.19;;;15.66;78.93
75157;BME280;63736;50.076;8.198;2023-03-31T13:29:23;97696.69;;;15.58;78.52
75157;BME280;63736;50.076;8.198;2023-03-31T13:34:25;97681.78;;;15.49;74.26
75157;BME280;63736;50.076;8.198;2023-03-31T13:37:08;97690.69;;;15.49;74.67
75157;BME280;63736;50.076;8.198;2023-03-31T13:42:50;97686.75;;;15.65;71.87
75157;BME280;63736;50.076;8.198;2023-03-31T13:48:23;97677.63;;;15.73;72.16
75157;BME280;63736;50.076;8.198;2023-03-31T13:51:00;97685.53;;;15.88;71.54
75157;BME280;63736;50.076;8.198;2023-03-31T14:05:22;97683.25;;;16.05;69.36
75157;BME280;63736;50.076;8.198;2023-03-31T14:07:57;97676.41;;;16.09;68.68
75157;BME280;63736;50.076;8.198;2023-03-31T14:10:35;97669.13;;;16.10;69.14
75157;BME280;63736;50.076;8.198;2023-03-31T14:13:18;97663.16;;;16.08;70.03
75157;BME280;63736;50.076;8.198;2023-03-31T14:15:52;97663.75;;;16.03;69.44
75157;BME280;63736;50.076;8.198;2023-03-31T14:18:36;97669.56;;;16.00;69.42
75157;BME280;63736;50.076;8.198;2023-03-31T14:21:33;97649.50;;;15.96;69.05
75157;BME280;63736;50.076;8.198;2023-03-31T14:24:24;97664.41;;;15.92;68.94
75157;BME280;63736;50.076;8.198;2023-03-31T14:27:10;97651.56;;;15.87;67.69
75157;BME280;63736;50.076;8.198;2023-03-31T14:29:54;97653.25;;;15.81;66.89
75157;BME280;63736;50.076;8.198;2023-03-31T14:32:48;97665.88;;;15.81;67.95
75157;BME280;63736;50.076;8.198;2023-03-31T14:35:33;97668.34;;;15.82;68.50
75157;BME280;63736;50.076;8.198;2023-03-31T14:38:05;97676.81;;;15.79;68.31
75157;BME280;63736;50.076;8.198;2023-03-31T14:40:34;97683.66;;;15.75;68.67
75157;BME280;63736;50.076;8.198;2023-03-31T14:43:19;97694.19;;;15.57;69.58
75157;BME280;63736;50.076;8.198;2023-03-31T14:45:45;97713.44;;;15.33;74.71
75157;BME280;63736;50.076;8.198;2023-03-31T14:48:13;97717.50;;;15.02;80.85
75157;BME280;63736;50.076;8.198;2023-03-31T14:50:43;97717.13;;;14.64;89.18
75157;BME280;63736;50.076;8.198;2023-03-31T14:53:16;97707.88;;;14.38;92.84
75157;BME280;63736;50.076;8.198;2023-03-31T14:55:44;97689.44;;;14.28;94.09
75157;BME280;63736;50.076;8.198;2023-03-31T14:58:13;97688.44;;;14.29;95.71
75157;BME280;63736;50.076;8.198;2023-03-31T15:00:41;97691.28;;;14.28;92.42